sensor_id;sensor_type;location;lat;lon;timestamp;temperature;humidity
33837;DHT22;20140;49.356;8.812;2024-02-21T00:00:51;8.10;99.90
33837;DHT22;20140;49.356;8.812;2024-02-21T00:03:17;8.20;99.90
33837;DHT22;20140;49.356;8.812;2024-02-21T00:05:43;8.20;99.90
33837;DHT22;20140;49.356;8.812;2024-02-21T00:08:08;8.10;99.90
33837;DHT22;20140;49.356;8.812;2024-02-21T00:10:34;8.20;99.90
33837;DHT22;20140;49.356;8.812;2024-02-21T00:13:03;8.20;99.90
33837;DHT22;20140;49.356;8.812;2024-02-21T00:15:28;8.20;99.90
33837;DHT22;20140;49.356;8.812;2024-02-21T00:17:54;8.20;99.90
33837;DHT22;20140;49.356;8.812;2024-02-21T00:20:20;8.20;99.90
33837;DHT22;20140;49.356;8.812;2024-02-21T00:22:45;8.20;99.90
33837;DHT22;20140;49.356;8.812;2024-02-21T00:25:11;8.20;99.90
33837;DHT22;20140;49.356;8.812;2024-02-21T00:27:36;8.10;99.90
33837;DHT22;20140;49.356;8.812;2024-02-21T00:30:03;8.20;99.90
33837;DHT22;20140;49.356;8.812;2024-02-21T00:32:28;8.20;99.90
33837;DHT22;20140;49.356;8.812;2024-02-21T00:34:54;8.20;99.90
33837;DHT22;20140;49.356;8.812;2024-02-21T00:37:19;8.20;99.90
33837;DHT22;20140;49.356;8.812;2024-02-21T00:39:45;8.20;99.90
33837;DHT22;20140;49.356;8.812;2024-02-21T00:42:10;8.10;99.90
33837;DHT22;20140;49.356;8.812;2024-02-21T00:44:36;8.10;99.90
33837;DHT22;20140;49.356;8.812;2024-02-21T00:47:01;8.10;99.90
33837;DHT22;20140;49.356;8.812;2024-02-21T00:49:27;8.10;99.90
33837;DHT22;20140;49.356;8.812;2024-02-21T00:51:52;8.10;99.90
33837;DHT22;20140;49.356;8.812;2024-02-21T00:54:18;8.20;99.90
33837;DHT22;20140;49.356;8.812;2024-02-21T00:56:43;8.20;99.90
33837;DHT22;20140;49.356;8.812;2024-02-21T00:59:09;8.10;99.90
33837;DHT22;20140;49.356;8.812;2024-02-21T01:01:34;8.10;99.90
33837;DHT22;20140;49.356;8.812;2024-02-21T01:04:00;8.10;99.90
33837;DHT22;20140;49.356;8.812;2024-02-21T01:06:26;8.10;99.90
33837;DHT22;20140;49.356;8.812;2024-02-21T01:08:51;8.20;99.90
33837;DHT22;20140;49.356;8.812;2024-02-21T01:11:17;8.00;99.90
33837;DHT22;20140;49.356;8.812;2024-02-21T01:13:42;8.10;99.90
33837;DHT22;20140;49.356;8.812;2024-02-21T01:16:08;8.10;99.90
33837;DHT22;20140;49.356;8.812;2024-02-21T01:18:39;8.20;99.90
33837;DHT22;20140;49.356;8.812;2024-02-21T01:21:05;8.10;99.90
33837;DHT22;20140;49.356;8.812;2024-02-21T01:23:35;8.00;99.90
33837;DHT22;20140;49.356;8.812;2024-02-21T01:26:02;8.00;99.90
33837;DHT22;20140;49.356;8.812;2024-02-21T01:28:27;8.00;99.90
33837;DHT22;20140;49.356;8.812;2024-02-21T01:30:53;8.00;99.90
33837;DHT22;20140;49.356;8.812;2024-02-21T01:33:18;8.00;99.90
33837;DHT22;20140;49.356;8.812;2024-02-21T01:35:44;8.00;99.90
33837;DHT22;20140;49.356;8.812;2024-02-21T01:38:10;8.00;99.90
33837;DHT22;20140;49.356;8.812;2024-02-21T01:40:36;8.00;99.90
33837;DHT22;20140;49.356;8.812;2024-02-21T01:43:02;8.00;99.90
33837;DHT22;20140;49.356;8.812;2024-02-21T01:45:28;8.00;99.90
33837;DHT22;20140;49.356;8.812;2024-02-21T01:47:54;8.00;99.90
33837;DHT22;20140;49.356;8.812;2024-02-21T01:50:19;8.00;99.90
33837;DHT22;20140;49.356;8.812;2024-02-21T01:52:49;8.00;99.90
33837;DHT22;20140;49.356;8.812;2024-02-21T01:55:15;8.00;99.90
33837;DHT22;20140;49.356;8.812;2024-02-21T01:57:42;8.00;99.90
33837;DHT22;20140;49.356;8.812;2024-02-21T02:00:11;7.90;99.90
33837;DHT22;20140;49.356;8.812;2024-02-21T02:02:38;8.00;99.90
33837;DHT22;20140;49.356;8.812;2024-02-21T02:05:04;7.90;99.90
33837;DHT22;20140;49.356;8.812;2024-02-21T02:07:31;7.90;99.90
33837;DHT22;20140;49.356;8.812;2024-02-21T02:09:57;7.90;99.90
33837;DHT22;20140;49.356;8.812;2024-02-21T02:12:22;7.80;99.90
33837;DHT22;20140;49.356;8.812;2024-02-21T02:15:01;7.90;99.90
33837;DHT22;20140;49.356;8.812;2024-02-21T02:17:30;7.90;99.90
33837;DHT22;20140;49.356;8.812;2024-02-21T02:19:55;7.90;99.90
33837;DHT22;20140;49.356;8.812;2024-02-21T02:22:23;7.80;99.90
33837;DHT22;20140;49.356;8.812;2024-02-21T02:24:51;7.80;99.90
33837;DHT22;20140;49.356;8.812;2024-02-21T02:27:16;7.80;99.90
33837;DHT22;20140;49.356;8.812;2024-02-21T02:29:42;7.80;99.90
33837;DHT22;20140;49.356;8.812;2024-02-21T02:32:07;7.80;99.90
33837;DHT22;20140;49.356;8.812;2024-02-21T02:34:33;7.70;99.90
33837;DHT22;20140;49.356;8.812;2024-02-21T02:36:58;7.80;99.90
33837;DHT22;20140;49.356;8.812;2024-02-21T02:39:24;7.70;99.90
33837;DHT22;20140;49.356;8.812;2024-02-21T02:41:49;7.80;99.90
33837;DHT22;20140;49.356;8.812;2024-02-21T02:44:15;7.70;99.90
33837;DHT22;20140;49.356;8.812;2024-02-21T02:46:41;7.70;99.90
33837;DHT22;20140;49.356;8.812;2024-02-21T02:49:07;7.70;99.90
33837;DHT22;20140;49.356;8.812;2024-02-21T02:51:32;7.70;99.90
33837;DHT22;20140;49.356;8.812;2024-02-21T02:53:58;7.70;99.90
33837;DHT22;20140;49.356;8.812;2024-02-21T02:56:23;7.70;99.90
33837;DHT22;20140;49.356;8.812;2024-02-21T02:58:49;7.70;99.90
33837;DHT22;20140;49.356;8.812;2024-02-21T03:01:14;7.70;99.90
33837;DHT22;20140;49.356;8.812;2024-02-21T03:03:40;7.70;99.90
33837;DHT22;20140;49.356;8.812;2024-02-21T03:06:06;7.70;99.90
33837;DHT22;20140;49.356;8.812;2024-02-21T03:08:31;7.70;99.90
33837;DHT22;20140;49.356;8.812;2024-02-21T03:10:58;7.60;99.90
33837;DHT22;20140;49.356;8.812;2024-02-21T03:13:25;7.60;99.90
33837;DHT22;20140;49.356;8.812;2024-02-21T03:15:50;7.60;99.90
33837;DHT22;20140;49.356;8.812;2024-02-21T03:18:16;7.60;99.90
33837;DHT22;20140;49.356;8.812;2024-02-21T03:20:43;7.60;99.90
33837;DHT22;20140;49.356;8.812;2024-02-21T03:23:09;7.50;99.90
33837;DHT22;20140;49.356;8.812;2024-02-21T03:25:34;7.60;99.90
33837;DHT22;20140;49.356;8.812;2024-02-21T03:28:00;7.60;99.90
33837;DHT22;20140;49.356;8.812;2024-02-21T03:30:25;7.60;99.90
33837;DHT22;20140;49.356;8.812;2024-02-21T03:32:51;7.50;99.90
33837;DHT22;20140;49.356;8.812;2024-02-21T03:35:16;7.50;99.90
33837;DHT22;20140;49.356;8.812;2024-02-21T03:37:42;7.50;99.90
33837;DHT22;20140;49.356;8.812;2024-02-21T03:40:10;7.60;99.90
33837;DHT22;20140;49.356;8.812;2024-02-21T03:42:36;7.50;99.90
33837;DHT22;20140;49.356;8.812;2024-02-21T03:45:01;7.50;99.90
33837;DHT22;20140;49.356;8.812;2024-02-21T03:47:27;7.50;99.90
33837;DHT22;20140;49.356;8.812;2024-02-21T03:49:52;7.50;99.90
33837;DHT22;20140;49.356;8.812;2024-02-21T03:52:18;7.40;99.90
33837;DHT22;20140;49.356;8.812;2024-02-21T03:54:43;7.40;99.90
33837;DHT22;20140;49.356;8.812;2024-02-21T03:57:09;7.40;99.90
33837;DHT22;20140;49.356;8.812;2024-02-21T03:59:37;7.40;99.90
33837;DHT22;20140;49.356;8.812;2024-02-21T04:02:05;7.50;99.90
33837;DHT22;20140;49.356;8.812;2024-02-21T04:04:35;7.50;99.90
33837;DHT22;20140;49.356;8.812;2024-02-21T04:07:02;7.40;99.90
33837;DHT22;20140;49.356;8.812;2024-02-21T04:09:32;7.30;99.90
33837;DHT22;20140;49.356;8.812;2024-02-21T04:11:59;7.40;99.90
33837;DHT22;20140;49.356;8.812;2024-02-21T04:14:24;7.50;99.90
33837;DHT22;20140;49.356;8.812;2024-02-21T04:16:50;7.50;99.90
33837;DHT22;20140;49.356;8.812;2024-02-21T04:19:15;7.50;99.90
33837;DHT22;20140;49.356;8.812;2024-02-21T04:21:41;7.40;99.90
33837;DHT22;20140;49.356;8.812;2024-02-21T04:24:06;7.30;99.90
33837;DHT22;20140;49.356;8.812;2024-02-21T04:26:32;7.30;99.90
33837;DHT22;20140;49.356;8.812;2024-02-21T04:28:58;7.30;99.90
33837;DHT22;20140;49.356;8.812;2024-02-21T04:31:23;7.20;99.90
33837;DHT22;20140;49.356;8.812;2024-02-21T04:33:48;7.10;99.90
33837;DHT22;20140;49.356;8.812;2024-02-21T04:36:14;7.20;99.90
33837;DHT22;20140;49.356;8.812;2024-02-21T04:38:40;7.10;99.90
33837;DHT22;20140;49.356;8.812;2024-02-21T04:41:06;7.10;99.90
33837;DHT22;20140;49.356;8.812;2024-02-21T04:43:31;7.20;99.90
33837;DHT22;20140;49.356;8.812;2024-02-21T04:45:57;7.10;99.90
33837;DHT22;20140;49.356;8.812;2024-02-21T04:48:22;7.10;99.90
33837;DHT22;20140;49.356;8.812;2024-02-21T04:50:48;7.10;99.90
33837;DHT22;20140;49.356;8.812;2024-02-21T04:53:13;7.00;99.90
33837;DHT22;20140;49.356;8.812;2024-02-21T04:55:41;7.00;99.90
33837;DHT22;20140;49.356;8.812;2024-02-21T04:58:07;7.10;99.90
33837;DHT22;20140;49.356;8.812;2024-02-21T05:00:33;7.10;99.90
33837;DHT22;20140;49.356;8.812;2024-02-21T05:02:58;7.10;99.90
33837;DHT22;20140;49.356;8.812;2024-02-21T05:05:24;7.10;99.90
33837;DHT22;20140;49.356;8.812;2024-02-21T05:07:49;7.10;99.90
33837;DHT22;20140;49.356;8.812;2024-02-21T05:10:15;7.10;99.90
33837;DHT22;20140;49.356;8.812;2024-02-21T05:12:40;7.00;99.90
33837;DHT22;20140;49.356;8.812;2024-02-21T05:15:06;7.00;99.90
33837;DHT22;20140;49.356;8.812;2024-02-21T05:17:31;6.90;99.90
33837;DHT22;20140;49.356;8.812;2024-02-21T05:19:57;6.80;99.90
33837;DHT22;20140;49.356;8.812;2024-02-21T05:22:22;6.70;99.90
33837;DHT22;20140;49.356;8.812;2024-02-21T05:24:48;6.70;99.90
33837;DHT22;20140;49.356;8.812;2024-02-21T05:27:13;6.60;99.90
33837;DHT22;20140;49.356;8.812;2024-02-21T05:29:39;6.40;99.90
33837;DHT22;20140;49.356;8.812;2024-02-21T05:32:04;6.40;99.90
33837;DHT22;20140;49.356;8.812;2024-02-21T05:34:30;6.20;99.90
33837;DHT22;20140;49.356;8.812;2024-02-21T05:36:56;6.20;99.90
33837;DHT22;20140;49.356;8.812;2024-02-21T05:39:22;6.10;99.90
33837;DHT22;20140;49.356;8.812;2024-02-21T05:41:49;6.00;99.90
33837;DHT22;20140;49.356;8.812;2024-02-21T05:44:16;5.90;99.90
33837;DHT22;20140;49.356;8.812;2024-02-21T05:46:42;5.90;99.90
33837;DHT22;20140;49.356;8.812;2024-02-21T05:49:07;5.80;99.90
33837;DHT22;20140;49.356;8.812;2024-02-21T05:51:33;6.00;99.90
33837;DHT22;20140;49.356;8.812;2024-02-21T05:53:59;6.00;99.90
33837;DHT22;20140;49.356;8.812;2024-02-21T05:56:25;5.90;99.90
33837;DHT22;20140;49.356;8.812;2024-02-21T05:58:50;5.80;99.90
33837;DHT22;20140;49.356;8.812;2024-02-21T06:01:16;5.50;99.90
33837;DHT22;20140;49.356;8.812;2024-02-21T06:03:41;5.40;99.90
33837;DHT22;20140;49.356;8.812;2024-02-21T06:06:07;5.30;99.90
33837;DHT22;20140;49.356;8.812;2024-02-21T06:08:32;5.30;99.90
33837;DHT22;20140;49.356;8.812;2024-02-21T06:10:58;5.30;99.90
33837;DHT22;20140;49.356;8.812;2024-02-21T06:13:24;5.20;99.90
33837;DHT22;20140;49.356;8.812;2024-02-21T06:15:52;5.20;99.90
33837;DHT22;20140;49.356;8.812;2024-02-21T06:18:18;5.10;99.90
33837;DHT22;20140;49.356;8.812;2024-02-21T06:20:43;5.10;99.90
33837;DHT22;20140;49.356;8.812;2024-02-21T06:23:09;5.20;99.90
33837;DHT22;20140;49.356;8.812;2024-02-21T06:25:35;5.20;99.90
33837;DHT22;20140;49.356;8.812;2024-02-21T06:28:00;5.30;99.90
33837;DHT22;20140;49.356;8.812;2024-02-21T06:30:26;5.20;99.90
33837;DHT22;20140;49.356;8.812;2024-02-21T06:32:52;5.20;99.90
33837;DHT22;20140;49.356;8.812;2024-02-21T06:35:17;5.30;99.90
33837;DHT22;20140;49.356;8.812;2024-02-21T06:37:43;5.30;99.90
33837;DHT22;20140;49.356;8.812;2024-02-21T06:40:10;5.20;99.90
33837;DHT22;20140;49.356;8.812;2024-02-21T06:42:36;5.00;99.90
33837;DHT22;20140;49.356;8.812;2024-02-21T06:45:01;4.90;99.90
33837;DHT22;20140;49.356;8.812;2024-02-21T06:47:27;4.90;99.90
33837;DHT22;20140;49.356;8.812;2024-02-21T06:49:52;4.90;99.90
33837;DHT22;20140;49.356;8.812;2024-02-21T06:52:18;4.80;99.90
33837;DHT22;20140;49.356;8.812;2024-02-21T06:54:46;4.80;99.90
33837;DHT22;20140;49.356;8.812;2024-02-21T06:57:12;4.90;99.90
33837;DHT22;20140;49.356;8.812;2024-02-21T06:59:38;4.90;99.90
33837;DHT22;20140;49.356;8.812;2024-02-21T07:02:04;5.00;99.90
33837;DHT22;20140;49.356;8.812;2024-02-21T07:04:29;4.90;99.90
33837;DHT22;20140;49.356;8.812;2024-02-21T07:09:21;4.90;99.90
33837;DHT22;20140;49.356;8.812;2024-02-21T07:11:46;4.90;99.90
33837;DHT22;20140;49.356;8.812;2024-02-21T07:14:13;4.80;99.90
33837;DHT22;20140;49.356;8.812;2024-02-21T07:16:39;4.80;99.90
33837;DHT22;20140;49.356;8.812;2024-02-21T07:19:04;4.70;99.90
33837;DHT22;20140;49.356;8.812;2024-02-21T07:21:30;5.00;99.90
33837;DHT22;20140;49.356;8.812;2024-02-21T07:23:55;5.20;99.90
33837;DHT22;20140;49.356;8.812;2024-02-21T07:26:21;4.90;99.90
33837;DHT22;20140;49.356;8.812;2024-02-21T07:28:47;4.90;99.90
33837;DHT22;20140;49.356;8.812;2024-02-21T07:31:12;4.90;99.90
33837;DHT22;20140;49.356;8.812;2024-02-21T07:33:38;4.90;99.90
33837;DHT22;20140;49.356;8.812;2024-02-21T07:36:10;5.10;99.90
33837;DHT22;20140;49.356;8.812;2024-02-21T07:38:37;5.00;99.90
33837;DHT22;20140;49.356;8.812;2024-02-21T07:41:02;5.20;99.90
33837;DHT22;20140;49.356;8.812;2024-02-21T07:43:29;5.30;99.90
33837;DHT22;20140;49.356;8.812;2024-02-21T07:45:55;5.40;99.90
33837;DHT22;20140;49.356;8.812;2024-02-21T07:48:22;5.30;99.90
33837;DHT22;20140;49.356;8.812;2024-02-21T07:50:52;5.40;99.90
33837;DHT22;20140;49.356;8.812;2024-02-21T07:53:17;5.40;99.90
33837;DHT22;20140;49.356;8.812;2024-02-21T07:55:43;5.40;99.90
33837;DHT22;20140;49.356;8.812;2024-02-21T07:58:08;5.50;99.90
33837;DHT22;20140;49.356;8.812;2024-02-21T08:00:34;5.70;99.90
33837;DHT22;20140;49.356;8.812;2024-02-21T08:02:59;5.80;99.90
33837;DHT22;20140;49.356;8.812;2024-02-21T08:05:25;5.90;99.90
33837;DHT22;20140;49.356;8.812;2024-02-21T08:07:50;6.10;99.90
33837;DHT22;20140;49.356;8.812;2024-02-21T08:10:16;6.20;99.90
33837;DHT22;20140;49.356;8.812;2024-02-21T08:12:42;6.30;99.90
33837;DHT22;20140;49.356;8.812;2024-02-21T08:15:08;6.30;99.90
33837;DHT22;20140;49.356;8.812;2024-02-21T08:17:36;6.40;99.90
33837;DHT22;20140;49.356;8.812;2024-02-21T08:20:01;6.60;99.90
33837;DHT22;20140;49.356;8.812;2024-02-21T08:22:28;6.70;99.90
33837;DHT22;20140;49.356;8.812;2024-02-21T08:24:53;6.80;99.90
33837;DHT22;20140;49.356;8.812;2024-02-21T08:27:19;6.80;99.90
33837;DHT22;20140;49.356;8.812;2024-02-21T08:29:44;7.10;99.90
33837;DHT22;20140;49.356;8.812;2024-02-21T08:32:10;7.10;99.90
33837;DHT22;20140;49.356;8.812;2024-02-21T08:34:35;7.30;99.90
33837;DHT22;20140;49.356;8.812;2024-02-21T08:37:01;7.40;99.90
33837;DHT22;20140;49.356;8.812;2024-02-21T08:39:26;7.60;99.90
33837;DHT22;20140;49.356;8.812;2024-02-21T08:41:54;7.70;99.90
33837;DHT22;20140;49.356;8.812;2024-02-21T08:44:19;7.70;99.90
33837;DHT22;20140;49.356;8.812;2024-02-21T08:46:45;7.70;99.90
33837;DHT22;20140;49.356;8.812;2024-02-21T08:49:12;7.90;99.90
33837;DHT22;20140;49.356;8.812;2024-02-21T08:51:39;7.70;99.90
33837;DHT22;20140;49.356;8.812;2024-02-21T08:54:04;7.80;99.90
33837;DHT22;20140;49.356;8.812;2024-02-21T08:56:30;7.80;99.90
33837;DHT22;20140;49.356;8.812;2024-02-21T08:58:56;7.90;99.90
33837;DHT22;20140;49.356;8.812;2024-02-21T09:01:23;8.00;99.90
33837;DHT22;20140;49.356;8.812;2024-02-21T09:03:48;8.00;99.90
33837;DHT22;20140;49.356;8.812;2024-02-21T09:06:18;8.00;99.90
33837;DHT22;20140;49.356;8.812;2024-02-21T09:08:45;8.10;99.90
33837;DHT22;20140;49.356;8.812;2024-02-21T09:11:10;8.10;99.90
33837;DHT22;20140;49.356;8.812;2024-02-21T09:13:36;8.00;99.90
33837;DHT22;20140;49.356;8.812;2024-02-21T09:16:01;8.10;99.90
33837;DHT22;20140;49.356;8.812;2024-02-21T09:18:27;8.20;99.90
33837;DHT22;20140;49.356;8.812;2024-02-21T09:20:52;8.10;99.90
33837;DHT22;20140;49.356;8.812;2024-02-21T09:23:18;8.20;99.90
33837;DHT22;20140;49.356;8.812;2024-02-21T09:25:45;8.20;99.90
33837;DHT22;20140;49.356;8.812;2024-02-21T09:28:11;8.30;99.90
33837;DHT22;20140;49.356;8.812;2024-02-21T09:30:38;8.30;99.90
33837;DHT22;20140;49.356;8.812;2024-02-21T09:33:04;8.40;99.90
33837;DHT22;20140;49.356;8.812;2024-02-21T09:35:30;8.40;99.90
33837;DHT22;20140;49.356;8.812;2024-02-21T09:37:56;8.40;99.90
33837;DHT22;20140;49.356;8.812;2024-02-21T09:40:22;8.60;99.90
33837;DHT22;20140;49.356;8.812;2024-02-21T09:42:48;8.50;99.90
33837;DHT22;20140;49.356;8.812;2024-02-21T09:45:23;8.50;99.90
33837;DHT22;20140;49.356;8.812;2024-02-21T09:50:53;8.80;99.90
33837;DHT22;20140;49.356;8.812;2024-02-21T09:53:20;8.90;99.90
33837;DHT22;20140;49.356;8.812;2024-02-21T09:55:49;9.00;99.90
33837;DHT22;20140;49.356;8.812;2024-02-21T09:58:16;9.00;99.90
33837;DHT22;20140;49.356;8.812;2024-02-21T10:00:41;9.10;99.90
33837;DHT22;20140;49.356;8.812;2024-02-21T10:03:07;9.10;99.90
33837;DHT22;20140;49.356;8.812;2024-02-21T10:05:36;9.10;99.90
33837;DHT22;20140;49.356;8.812;2024-02-21T10:08:02;9.10;99.90
33837;DHT22;20140;49.356;8.812;2024-02-21T10:10:27;9.20;99.90
33837;DHT22;20140;49.356;8.812;2024-02-21T10:12:55;9.30;99.90
33837;DHT22;20140;49.356;8.812;2024-02-21T10:15:21;9.30;99.90
33837;DHT22;20140;49.356;8.812;2024-02-21T10:17:58;9.40;99.90
33837;DHT22;20140;49.356;8.812;2024-02-21T10:20:23;9.60;99.90
33837;DHT22;20140;49.356;8.812;2024-02-21T10:23:01;9.70;99.90
33837;DHT22;20140;49.356;8.812;2024-02-21T10:25:28;9.80;99.90
33837;DHT22;20140;49.356;8.812;2024-02-21T10:27:54;9.80;99.90
33837;DHT22;20140;49.356;8.812;2024-02-21T10:30:20;9.90;99.90
33837;DHT22;20140;49.356;8.812;2024-02-21T10:32:55;10.00;99.90
33837;DHT22;20140;49.356;8.812;2024-02-21T10:35:28;10.00;99.90
33837;DHT22;20140;49.356;8.812;2024-02-21T10:37:55;9.90;99.90
33837;DHT22;20140;49.356;8.812;2024-02-21T10:40:25;10.10;99.90
33837;DHT22;20140;49.356;8.812;2024-02-21T10:42:59;10.10;99.90
33837;DHT22;20140;49.356;8.812;2024-02-21T10:45:35;10.10;99.90
33837;DHT22;20140;49.356;8.812;2024-02-21T10:48:13;10.00;99.90
33837;DHT22;20140;49.356;8.812;2024-02-21T10:53:26;10.20;99.90
33837;DHT22;20140;49.356;8.812;2024-02-21T10:56:06;10.30;99.90
33837;DHT22;20140;49.356;8.812;2024-02-21T10:58:37;10.40;99.90
33837;DHT22;20140;49.356;8.812;2024-02-21T11:01:03;10.50;99.90
33837;DHT22;20140;49.356;8.812;2024-02-21T11:03:30;10.60;99.90
33837;DHT22;20140;49.356;8.812;2024-02-21T11:05:56;10.80;99.90
33837;DHT22;20140;49.356;8.812;2024-02-21T11:08:22;10.80;99.90
33837;DHT22;20140;49.356;8.812;2024-02-21T11:10:56;10.70;99.90
33837;DHT22;20140;49.356;8.812;2024-02-21T11:13:30;10.70;99.90
33837;DHT22;20140;49.356;8.812;2024-02-21T11:16:06;10.80;99.90
33837;DHT22;20140;49.356;8.812;2024-02-21T11:18:33;10.80;99.90
33837;DHT22;20140;49.356;8.812;2024-02-21T11:20:58;10.80;99.90
33837;DHT22;20140;49.356;8.812;2024-02-21T11:23:25;10.90;99.90
33837;DHT22;20140;49.356;8.812;2024-02-21T11:26:04;10.90;99.90
33837;DHT22;20140;49.356;8.812;2024-02-21T11:28:30;10.90;99.90
33837;DHT22;20140;49.356;8.812;2024-02-21T11:31:13;11.10;99.90
33837;DHT22;20140;49.356;8.812;2024-02-21T11:33:40;10.90;99.90
33837;DHT22;20140;49.356;8.812;2024-02-21T11:36:09;10.90;99.90
33837;DHT22;20140;49.356;8.812;2024-02-21T11:38:35;11.00;99.90
33837;DHT22;20140;49.356;8.812;2024-02-21T11:41:01;11.00;99.90
33837;DHT22;20140;49.356;8.812;2024-02-21T11:43:27;11.00;99.90
33837;DHT22;20140;49.356;8.812;2024-02-21T11:46:01;11.00;99.90
33837;DHT22;20140;49.356;8.812;2024-02-21T11:48:32;11.00;99.90
33837;DHT22;20140;49.356;8.812;2024-02-21T11:50:57;11.10;99.90
33837;DHT22;20140;49.356;8.812;2024-02-21T11:53:25;11.20;99.90
33837;DHT22;20140;49.356;8.812;2024-02-21T11:55:56;11.20;99.90
33837;DHT22;20140;49.356;8.812;2024-02-21T11:58:22;11.40;99.90
33837;DHT22;20140;49.356;8.812;2024-02-21T12:00:48;11.30;99.90
33837;DHT22;20140;49.356;8.812;2024-02-21T12:03:14;11.30;99.90
33837;DHT22;20140;49.356;8.812;2024-02-21T12:05:41;11.30;99.90
33837;DHT22;20140;49.356;8.812;2024-02-21T12:08:07;11.40;99.90
33837;DHT22;20140;49.356;8.812;2024-02-21T12:10:33;11.50;99.90
33837;DHT22;20140;49.356;8.812;2024-02-21T12:13:10;11.40;99.90
33837;DHT22;20140;49.356;8.812;2024-02-21T12:15:35;11.40;99.90
33837;DHT22;20140;49.356;8.812;2024-02-21T12:18:01;11.40;99.90
33837;DHT22;20140;49.356;8.812;2024-02-21T12:20:26;11.30;99.90
33837;DHT22;20140;49.356;8.812;2024-02-21T12:22:52;11.50;99.90
33837;DHT22;20140;49.356;8.812;2024-02-21T12:25:20;11.60;99.90
33837;DHT22;20140;49.356;8.812;2024-02-21T12:27:51;11.50;99.90
33837;DHT22;20140;49.356;8.812;2024-02-21T12:30:17;11.60;99.90
33837;DHT22;20140;49.356;8.812;2024-02-21T12:32:46;11.60;99.90
33837;DHT22;20140;49.356;8.812;2024-02-21T12:35:11;11.80;99.90
33837;DHT22;20140;49.356;8.812;2024-02-21T12:37:37;11.70;99.90
33837;DHT22;20140;49.356;8.812;2024-02-21T12:40:05;11.80;99.90
33837;DHT22;20140;49.356;8.812;2024-02-21T12:42:32;11.70;99.90
33837;DHT22;20140;49.356;8.812;2024-02-21T12:44:58;11.80;99.90
33837;DHT22;20140;49.356;8.812;2024-02-21T12:47:24;11.70;99.90
33837;DHT22;20140;49.356;8.812;2024-02-21T12:49:52;11.80;99.90
33837;DHT22;20140;49.356;8.812;2024-02-21T12:52:17;11.80;99.90
33837;DHT22;20140;49.356;8.812;2024-02-21T12:54:43;11.80;99.90
33837;DHT22;20140;49.356;8.812;2024-02-21T12:57:08;11.80;99.90
33837;DHT22;20140;49.356;8.812;2024-02-21T12:59:34;11.70;99.90
33837;DHT22;20140;49.356;8.812;2024-02-21T13:01:59;11.80;99.90
33837;DHT22;20140;49.356;8.812;2024-02-21T13:04:25;11.90;99.90
33837;DHT22;20140;49.356;8.812;2024-02-21T13:06:51;11.80;99.90
33837;DHT22;20140;49.356;8.812;2024-02-21T13:09:16;11.70;99.90
33837;DHT22;20140;49.356;8.812;2024-02-21T13:11:42;11.70;99.90
33837;DHT22;20140;49.356;8.812;2024-02-21T13:14:09;11.80;99.90
33837;DHT22;20140;49.356;8.812;2024-02-21T13:16:35;11.80;99.90
33837;DHT22;20140;49.356;8.812;2024-02-21T13:19:05;11.70;99.90
33837;DHT22;20140;49.356;8.812;2024-02-21T13:21:30;11.80;99.90
33837;DHT22;20140;49.356;8.812;2024-02-21T13:23:56;11.80;99.90
33837;DHT22;20140;49.356;8.812;2024-02-21T13:26:22;11.80;99.90
33837;DHT22;20140;49.356;8.812;2024-02-21T13:28:47;11.90;99.90
33837;DHT22;20140;49.356;8.812;2024-02-21T13:31:13;11.80;99.90
33837;DHT22;20140;49.356;8.812;2024-02-21T13:33:39;11.90;99.90
33837;DHT22;20140;49.356;8.812;2024-02-21T13:36:05;11.90;99.90
33837;DHT22;20140;49.356;8.812;2024-02-21T13:38:31;12.00;99.90
33837;DHT22;20140;49.356;8.812;2024-02-21T13:40:56;11.80;99.90
33837;DHT22;20140;49.356;8.812;2024-02-21T13:43:22;11.80;99.90
33837;DHT22;20140;49.356;8.812;2024-02-21T13:46:01;11.70;99.90
33837;DHT22;20140;49.356;8.812;2024-02-21T13:48:30;11.50;99.90
33837;DHT22;20140;49.356;8.812;2024-02-21T13:50:56;11.60;99.90
33837;DHT22;20140;49.356;8.812;2024-02-21T13:53:22;11.60;99.90
33837;DHT22;20140;49.356;8.812;2024-02-21T13:55:48;11.70;99.90
33837;DHT22;20140;49.356;8.812;2024-02-21T13:58:15;11.50;99.90
33837;DHT22;20140;49.356;8.812;2024-02-21T14:00:41;11.50;99.90
33837;DHT22;20140;49.356;8.812;2024-02-21T14:03:06;11.50;99.90
33837;DHT22;20140;49.356;8.812;2024-02-21T14:05:32;11.50;99.90
33837;DHT22;20140;49.356;8.812;2024-02-21T14:07:57;11.60;99.90
33837;DHT22;20140;49.356;8.812;2024-02-21T14:10:23;11.60;99.90
33837;DHT22;20140;49.356;8.812;2024-02-21T14:12:49;11.60;99.90
33837;DHT22;20140;49.356;8.812;2024-02-21T14:15:15;11.60;99.90
33837;DHT22;20140;49.356;8.812;2024-02-21T14:17:42;11.60;99.90
33837;DHT22;20140;49.356;8.812;2024-02-21T14:20:08;11.60;99.90
33837;DHT22;20140;49.356;8.812;2024-02-21T14:22:33;11.60;99.90
33837;DHT22;20140;49.356;8.812;2024-02-21T14:25:00;11.70;99.90
33837;DHT22;20140;49.356;8.812;2024-02-21T14:27:30;11.80;99.90
33837;DHT22;20140;49.356;8.812;2024-02-21T14:29:56;11.80;99.90
33837;DHT22;20140;49.356;8.812;2024-02-21T14:32:21;11.90;99.90
33837;DHT22;20140;49.356;8.812;2024-02-21T14:34:47;11.70;99.90
33837;DHT22;20140;49.356;8.812;2024-02-21T14:37:12;11.90;99.90
33837;DHT22;20140;49.356;8.812;2024-02-21T14:39:38;11.90;99.90
33837;DHT22;20140;49.356;8.812;2024-02-21T14:42:03;11.90;99.90
33837;DHT22;20140;49.356;8.812;2024-02-21T14:44:31;11.90;99.90
33837;DHT22;20140;49.356;8.812;2024-02-21T14:46:57;11.90;99.90
33837;DHT22;20140;49.356;8.812;2024-02-21T14:49:22;11.70;99.90
33837;DHT22;20140;49.356;8.812;2024-02-21T14:51:48;11.70;99.90
33837;DHT22;20140;49.356;8.812;2024-02-21T14:54:13;11.70;99.90
33837;DHT22;20140;49.356;8.812;2024-02-21T14:56:39;11.80;99.90
33837;DHT22;20140;49.356;8.812;2024-02-21T14:59:05;11.90;99.90
33837;DHT22;20140;49.356;8.812;2024-02-21T15:01:35;12.00;99.90
33837;DHT22;20140;49.356;8.812;2024-02-21T15:04:03;12.10;99.90
33837;DHT22;20140;49.356;8.812;2024-02-21T15:06:28;12.10;99.90
33837;DHT22;20140;49.356;8.812;2024-02-21T15:08:54;12.10;99.90
33837;DHT22;20140;49.356;8.812;2024-02-21T15:11:19;12.20;99.90
33837;DHT22;20140;49.356;8.812;2024-02-21T15:13:47;12.10;99.90
33837;DHT22;20140;49.356;8.812;2024-02-21T15:16:13;12.00;99.90
33837;DHT22;20140;49.356;8.812;2024-02-21T15:18:38;12.00;99.90
33837;DHT22;20140;49.356;8.812;2024-02-21T15:21:04;12.00;99.90
33837;DHT22;20140;49.356;8.812;2024-02-21T15:23:29;11.90;99.90
33837;DHT22;20140;49.356;8.812;2024-02-21T15:25:55;11.70;99.90
33837;DHT22;20140;49.356;8.812;2024-02-21T15:28:20;11.60;99.90
33837;DHT22;20140;49.356;8.812;2024-02-21T15:30:46;11.80;99.90
33837;DHT22;20140;49.356;8.812;2024-02-21T15:33:12;11.80;99.90
33837;DHT22;20140;49.356;8.812;2024-02-21T15:35:37;11.80;99.90
33837;DHT22;20140;49.356;8.812;2024-02-21T15:38:03;11.60;99.90
33837;DHT22;20140;49.356;8.812;2024-02-21T15:40:29;11.80;99.90
33837;DHT22;20140;49.356;8.812;2024-02-21T15:42:54;11.70;99.90